Athol, Massachusetts
Current Conditions -  °F | °C
As of 7:59 PM on Monday 26 Jan 2015 (Local Time) from KORE Reporting Station
Light Snow Light Snow  
Wind Chill: -14°   Ceiling: 2200
Heat Index: -8°   Visibility: 1.7mi
Dew Point: -11°   Wind: 9mph
Humidity: 81%   Direction: 10°N
Pressure: 30"   Gusts: NA
Location:  42.59°N, 72.23°W
Report Text: KORE 270059Z AUTO 01008KT 1 3/4SM -SN OVC022 M08/M11 A3000 RMK AO2 P0000 T10781106
Loading
Personal Weather Stations






























Interactive Weather Map New forecast layout! Learn more

10-Day Weather Forecast

Advertisements
Track Severe Weather on mobile